sensor_id;sensor_type;location;lat;lon;timestamp;temperature;humidity
15262;DHT22;7733;51.554;13.590;2023-06-01T00:01:52;13.90;99.90
15262;DHT22;7733;51.554;13.590;2023-06-01T00:04:18;14.00;99.60
15262;DHT22;7733;51.554;13.590;2023-06-01T00:06:44;14.10;99.00
15262;DHT22;7733;51.554;13.590;2023-06-01T00:09:10;14.40;97.70
15262;DHT22;7733;51.554;13.590;2023-06-01T00:11:36;14.40;97.50
15262;DHT22;7733;51.554;13.590;2023-06-01T00:14:02;14.30;97.70
15262;DHT22;7733;51.554;13.590;2023-06-01T00:16:29;14.50;97.10
15262;DHT22;7733;51.554;13.590;2023-06-01T00:18:56;14.60;96.70
15262;DHT22;7733;51.554;13.590;2023-06-01T00:21:22;14.60;96.50
15262;DHT22;7733;51.554;13.590;2023-06-01T00:23:48;14.60;96.30
15262;DHT22;7733;51.554;13.590;2023-06-01T00:26:15;14.60;96.30
15262;DHT22;7733;51.554;13.590;2023-06-01T00:28:41;14.60;96.50
15262;DHT22;7733;51.554;13.590;2023-06-01T00:31:07;14.60;96.00
15262;DHT22;7733;51.554;13.590;2023-06-01T00:33:32;14.60;96.00
15262;DHT22;7733;51.554;13.590;2023-06-01T00:35:58;14.50;96.00
15262;DHT22;7733;51.554;13.590;2023-06-01T00:38:24;14.40;96.50
15262;DHT22;7733;51.554;13.590;2023-06-01T00:40:50;14.30;96.40
15262;DHT22;7733;51.554;13.590;2023-06-01T00:43:17;14.30;96.40
15262;DHT22;7733;51.554;13.590;2023-06-01T00:45:43;14.30;96.60
15262;DHT22;7733;51.554;13.590;2023-06-01T00:48:11;14.20;98.30
15262;DHT22;7733;51.554;13.590;2023-06-01T00:50:38;14.00;99.00
15262;DHT22;7733;51.554;13.590;2023-06-01T00:53:07;14.00;99.50
15262;DHT22;7733;51.554;13.590;2023-06-01T00:55:40;13.90;99.60
15262;DHT22;7733;51.554;13.590;2023-06-01T00:58:06;13.80;99.90
15262;DHT22;7733;51.554;13.590;2023-06-01T01:00:33;13.80;99.90
15262;DHT22;7733;51.554;13.590;2023-06-01T01:02:59;13.40;99.90
15262;DHT22;7733;51.554;13.590;2023-06-01T01:05:33;13.10;99.90
15262;DHT22;7733;51.554;13.590;2023-06-01T01:08:37;12.70;99.90
15262;DHT22;7733;51.554;13.590;2023-06-01T01:11:29;12.50;99.90
15262;DHT22;7733;51.554;13.590;2023-06-01T01:17:02;12.00;99.90
15262;DHT22;7733;51.554;13.590;2023-06-01T01:22:13;12.50;99.90
15262;DHT22;7733;51.554;13.590;2023-06-01T01:25:20;12.30;99.90
15262;DHT22;7733;51.554;13.590;2023-06-01T01:30:46;13.10;99.90
15262;DHT22;7733;51.554;13.590;2023-06-01T01:33:12;13.30;99.90
15262;DHT22;7733;51.554;13.590;2023-06-01T01:35:40;13.40;99.90
15262;DHT22;7733;51.554;13.590;2023-06-01T01:38:07;13.60;99.90
15262;DHT22;7733;51.554;13.590;2023-06-01T01:40:32;13.60;99.90
15262;DHT22;7733;51.554;13.590;2023-06-01T01:42:58;13.60;99.90
15262;DHT22;7733;51.554;13.590;2023-06-01T01:45:26;13.50;99.90
15262;DHT22;7733;51.554;13.590;2023-06-01T01:48:19;13.10;99.90
15262;DHT22;7733;51.554;13.590;2023-06-01T01:51:15;13.00;99.90
15262;DHT22;7733;51.554;13.590;2023-06-01T01:53:48;12.80;99.90
15262;DHT22;7733;51.554;13.590;2023-06-01T01:56:18;12.60;99.90
15262;DHT22;7733;51.554;13.590;2023-06-01T01:58:45;12.70;99.90
15262;DHT22;7733;51.554;13.590;2023-06-01T02:01:13;12.80;99.90
15262;DHT22;7733;51.554;13.590;2023-06-01T02:03:40;12.90;99.90
15262;DHT22;7733;51.554;13.590;2023-06-01T02:06:06;12.80;99.90
15262;DHT22;7733;51.554;13.590;2023-06-01T02:08:31;12.70;99.90
15262;DHT22;7733;51.554;13.590;2023-06-01T02:10:57;12.50;99.90
15262;DHT22;7733;51.554;13.590;2023-06-01T02:13:23;12.50;99.90
15262;DHT22;7733;51.554;13.590;2023-06-01T02:15:49;12.20;99.90
15262;DHT22;7733;51.554;13.590;2023-06-01T02:18:14;12.30;99.90
15262;DHT22;7733;51.554;13.590;2023-06-01T02:20:43;12.20;99.90
15262;DHT22;7733;51.554;13.590;2023-06-01T02:23:10;12.20;99.90
15262;DHT22;7733;51.554;13.590;2023-06-01T02:25:36;12.30;99.90
15262;DHT22;7733;51.554;13.590;2023-06-01T02:28:02;12.40;99.90
15262;DHT22;7733;51.554;13.590;2023-06-01T02:30:28;12.60;99.90
15262;DHT22;7733;51.554;13.590;2023-06-01T02:32:53;12.80;99.90
15262;DHT22;7733;51.554;13.590;2023-06-01T02:35:20;12.40;99.90
15262;DHT22;7733;51.554;13.590;2023-06-01T02:37:46;12.20;99.90
15262;DHT22;7733;51.554;13.590;2023-06-01T02:40:11;12.10;99.90
15262;DHT22;7733;51.554;13.590;2023-06-01T02:42:38;12.20;99.90
15262;DHT22;7733;51.554;13.590;2023-06-01T02:45:05;12.40;99.90
15262;DHT22;7733;51.554;13.590;2023-06-01T02:47:32;12.60;99.90
15262;DHT22;7733;51.554;13.590;2023-06-01T02:49:58;12.90;99.90
15262;DHT22;7733;51.554;13.590;2023-06-01T02:52:23;12.60;99.90
15262;DHT22;7733;51.554;13.590;2023-06-01T02:54:50;12.50;99.90
15262;DHT22;7733;51.554;13.590;2023-06-01T02:57:15;12.60;99.90
15262;DHT22;7733;51.554;13.590;2023-06-01T02:59:41;12.70;99.90
15262;DHT22;7733;51.554;13.590;2023-06-01T03:02:07;12.60;99.90
15262;DHT22;7733;51.554;13.590;2023-06-01T03:04:32;12.30;99.90
15262;DHT22;7733;51.554;13.590;2023-06-01T03:06:59;12.30;99.90
15262;DHT22;7733;51.554;13.590;2023-06-01T03:09:26;12.30;99.90
15262;DHT22;7733;51.554;13.590;2023-06-01T03:11:52;12.30;99.90
15262;DHT22;7733;51.554;13.590;2023-06-01T03:14:18;12.10;99.90
15262;DHT22;7733;51.554;13.590;2023-06-01T03:16:43;12.00;99.90
15262;DHT22;7733;51.554;13.590;2023-06-01T03:19:09;12.10;99.90
15262;DHT22;7733;51.554;13.590;2023-06-01T03:21:35;12.40;99.90
15262;DHT22;7733;51.554;13.590;2023-06-01T03:24:01;12.50;99.90
15262;DHT22;7733;51.554;13.590;2023-06-01T03:26:27;12.40;99.90
15262;DHT22;7733;51.554;13.590;2023-06-01T03:28:53;12.30;99.90
15262;DHT22;7733;51.554;13.590;2023-06-01T03:31:20;12.00;99.90
15262;DHT22;7733;51.554;13.590;2023-06-01T03:33:47;12.00;99.90
15262;DHT22;7733;51.554;13.590;2023-06-01T03:36:12;12.10;99.90
15262;DHT22;7733;51.554;13.590;2023-06-01T03:38:39;12.30;99.90
15262;DHT22;7733;51.554;13.590;2023-06-01T03:41:05;12.10;99.90
15262;DHT22;7733;51.554;13.590;2023-06-01T03:43:31;12.30;99.90
15262;DHT22;7733;51.554;13.590;2023-06-01T03:45:56;12.50;99.90
15262;DHT22;7733;51.554;13.590;2023-06-01T03:48:22;12.60;99.90
15262;DHT22;7733;51.554;13.590;2023-06-01T03:50:48;12.70;99.90
15262;DHT22;7733;51.554;13.590;2023-06-01T03:53:14;12.40;99.90
15262;DHT22;7733;51.554;13.590;2023-06-01T03:55:40;12.60;99.90
15262;DHT22;7733;51.554;13.590;2023-06-01T03:58:05;12.60;99.90
15262;DHT22;7733;51.554;13.590;2023-06-01T04:00:33;12.80;99.90
15262;DHT22;7733;51.554;13.590;2023-06-01T04:02:59;12.90;99.90
15262;DHT22;7733;51.554;13.590;2023-06-01T04:05:27;12.90;99.90
15262;DHT22;7733;51.554;13.590;2023-06-01T04:07:54;13.00;99.90
15262;DHT22;7733;51.554;13.590;2023-06-01T04:10:21;12.90;99.90
15262;DHT22;7733;51.554;13.590;2023-06-01T04:12:49;12.80;99.90
15262;DHT22;7733;51.554;13.590;2023-06-01T04:15:16;12.90;99.90
15262;DHT22;7733;51.554;13.590;2023-06-01T04:17:44;12.70;99.90
15262;DHT22;7733;51.554;13.590;2023-06-01T04:20:15;12.80;99.90
15262;DHT22;7733;51.554;13.590;2023-06-01T04:22:42;12.80;99.90
15262;DHT22;7733;51.554;13.590;2023-06-01T04:25:10;12.90;99.90
15262;DHT22;7733;51.554;13.590;2023-06-01T04:27:41;13.00;99.90
15262;DHT22;7733;51.554;13.590;2023-06-01T04:30:11;13.20;99.90
15262;DHT22;7733;51.554;13.590;2023-06-01T04:32:39;13.00;99.90
15262;DHT22;7733;51.554;13.590;2023-06-01T04:35:06;13.10;99.90
15262;DHT22;7733;51.554;13.590;2023-06-01T04:37:37;13.00;99.90
15262;DHT22;7733;51.554;13.590;2023-06-01T04:40:05;13.20;99.90
15262;DHT22;7733;51.554;13.590;2023-06-01T04:42:43;13.20;99.90
15262;DHT22;7733;51.554;13.590;2023-06-01T04:45:21;13.30;99.90
15262;DHT22;7733;51.554;13.590;2023-06-01T04:47:47;13.30;99.90
15262;DHT22;7733;51.554;13.590;2023-06-01T04:50:13;13.40;99.90
15262;DHT22;7733;51.554;13.590;2023-06-01T04:52:41;13.50;99.90
15262;DHT22;7733;51.554;13.590;2023-06-01T04:55:08;13.60;99.90
15262;DHT22;7733;51.554;13.590;2023-06-01T04:57:36;13.60;99.90
15262;DHT22;7733;51.554;13.590;2023-06-01T05:00:05;13.60;99.90
15262;DHT22;7733;51.554;13.590;2023-06-01T05:02:42;13.70;99.90
15262;DHT22;7733;51.554;13.590;2023-06-01T05:05:09;13.90;99.90
15262;DHT22;7733;51.554;13.590;2023-06-01T05:07:36;13.90;99.90
15262;DHT22;7733;51.554;13.590;2023-06-01T05:10:08;13.90;99.90
15262;DHT22;7733;51.554;13.590;2023-06-01T05:12:36;14.00;99.90
15262;DHT22;7733;51.554;13.590;2023-06-01T05:15:05;14.10;99.90
15262;DHT22;7733;51.554;13.590;2023-06-01T05:17:33;14.10;99.90
15262;DHT22;7733;51.554;13.590;2023-06-01T05:19:59;14.20;99.90
15262;DHT22;7733;51.554;13.590;2023-06-01T05:22:25;14.30;99.90
15262;DHT22;7733;51.554;13.590;2023-06-01T05:24:51;14.30;99.90
15262;DHT22;7733;51.554;13.590;2023-06-01T05:27:17;14.30;99.90
15262;DHT22;7733;51.554;13.590;2023-06-01T05:29:43;14.30;99.90
15262;DHT22;7733;51.554;13.590;2023-06-01T05:32:09;14.40;99.90
15262;DHT22;7733;51.554;13.590;2023-06-01T05:34:35;14.50;99.90
15262;DHT22;7733;51.554;13.590;2023-06-01T05:37:02;14.50;99.90
15262;DHT22;7733;51.554;13.590;2023-06-01T05:39:28;14.70;99.90
15262;DHT22;7733;51.554;13.590;2023-06-01T05:41:55;14.80;99.90
15262;DHT22;7733;51.554;13.590;2023-06-01T05:44:21;14.80;99.90
15262;DHT22;7733;51.554;13.590;2023-06-01T05:46:47;14.90;99.90
15262;DHT22;7733;51.554;13.590;2023-06-01T05:49:14;14.80;99.90
15262;DHT22;7733;51.554;13.590;2023-06-01T05:51:40;14.90;99.90
15262;DHT22;7733;51.554;13.590;2023-06-01T05:54:08;14.90;99.90
15262;DHT22;7733;51.554;13.590;2023-06-01T05:56:35;14.90;99.90
15262;DHT22;7733;51.554;13.590;2023-06-01T05:59:05;15.10;99.90
15262;DHT22;7733;51.554;13.590;2023-06-01T06:01:31;15.20;99.90
15262;DHT22;7733;51.554;13.590;2023-06-01T06:03:58;15.40;99.90
15262;DHT22;7733;51.554;13.590;2023-06-01T06:06:25;15.40;99.90
15262;DHT22;7733;51.554;13.590;2023-06-01T06:08:52;15.30;99.90
15262;DHT22;7733;51.554;13.590;2023-06-01T06:11:18;15.40;99.90
15262;DHT22;7733;51.554;13.590;2023-06-01T06:13:45;15.50;99.90
15262;DHT22;7733;51.554;13.590;2023-06-01T06:16:14;15.50;99.90
15262;DHT22;7733;51.554;13.590;2023-06-01T06:18:40;15.60;99.90
15262;DHT22;7733;51.554;13.590;2023-06-01T06:21:05;15.70;99.90
15262;DHT22;7733;51.554;13.590;2023-06-01T06:23:31;15.70;99.90
15262;DHT22;7733;51.554;13.590;2023-06-01T06:25:58;15.60;99.90
15262;DHT22;7733;51.554;13.590;2023-06-01T06:28:24;15.70;99.90
15262;DHT22;7733;51.554;13.590;2023-06-01T06:30:50;15.80;99.90
15262;DHT22;7733;51.554;13.590;2023-06-01T06:33:16;15.90;99.90
15262;DHT22;7733;51.554;13.590;2023-06-01T06:35:42;15.80;99.90
15262;DHT22;7733;51.554;13.590;2023-06-01T06:38:08;15.90;99.90
15262;DHT22;7733;51.554;13.590;2023-06-01T06:40:38;16.00;99.90
15262;DHT22;7733;51.554;13.590;2023-06-01T06:43:04;16.20;99.90
15262;DHT22;7733;51.554;13.590;2023-06-01T06:45:30;16.40;99.90
15262;DHT22;7733;51.554;13.590;2023-06-01T06:47:55;16.60;99.90
15262;DHT22;7733;51.554;13.590;2023-06-01T06:50:21;16.70;99.90
15262;DHT22;7733;51.554;13.590;2023-06-01T06:52:47;16.90;99.90
15262;DHT22;7733;51.554;13.590;2023-06-01T06:55:12;16.90;99.90
15262;DHT22;7733;51.554;13.590;2023-06-01T06:57:38;17.00;99.90
15262;DHT22;7733;51.554;13.590;2023-06-01T07:00:09;17.00;99.90
15262;DHT22;7733;51.554;13.590;2023-06-01T07:02:40;16.90;99.90
15262;DHT22;7733;51.554;13.590;2023-06-01T07:05:10;17.10;99.90
15262;DHT22;7733;51.554;13.590;2023-06-01T07:07:37;17.10;99.90
15262;DHT22;7733;51.554;13.590;2023-06-01T07:10:03;17.30;99.90
15262;DHT22;7733;51.554;13.590;2023-06-01T07:12:30;17.40;99.90
15262;DHT22;7733;51.554;13.590;2023-06-01T07:14:56;17.30;99.90
15262;DHT22;7733;51.554;13.590;2023-06-01T07:17:21;17.30;99.90
15262;DHT22;7733;51.554;13.590;2023-06-01T07:19:47;17.50;99.90
15262;DHT22;7733;51.554;13.590;2023-06-01T07:22:13;17.60;99.90
15262;DHT22;7733;51.554;13.590;2023-06-01T07:24:39;17.60;99.90
15262;DHT22;7733;51.554;13.590;2023-06-01T07:27:05;17.60;99.90
15262;DHT22;7733;51.554;13.590;2023-06-01T07:29:31;17.70;99.90
15262;DHT22;7733;51.554;13.590;2023-06-01T07:31:57;17.80;99.50
15262;DHT22;7733;51.554;13.590;2023-06-01T07:34:23;17.80;99.10
15262;DHT22;7733;51.554;13.590;2023-06-01T07:36:50;18.00;99.30
15262;DHT22;7733;51.554;13.590;2023-06-01T07:39:16;18.10;98.40
15262;DHT22;7733;51.554;13.590;2023-06-01T07:41:44;18.20;98.80
15262;DHT22;7733;51.554;13.590;2023-06-01T07:44:10;18.20;97.90
15262;DHT22;7733;51.554;13.590;2023-06-01T07:46:37;18.20;97.70
15262;DHT22;7733;51.554;13.590;2023-06-01T07:49:03;18.20;97.10
15262;DHT22;7733;51.554;13.590;2023-06-01T07:51:29;18.30;97.90
15262;DHT22;7733;51.554;13.590;2023-06-01T07:53:56;18.40;97.20
15262;DHT22;7733;51.554;13.590;2023-06-01T07:56:24;18.70;97.70
15262;DHT22;7733;51.554;13.590;2023-06-01T07:58:52;18.50;97.10
15262;DHT22;7733;51.554;13.590;2023-06-01T08:01:19;18.70;97.00
15262;DHT22;7733;51.554;13.590;2023-06-01T08:03:45;18.70;96.50
15262;DHT22;7733;51.554;13.590;2023-06-01T08:06:11;18.90;96.60
15262;DHT22;7733;51.554;13.590;2023-06-01T08:08:37;19.00;96.60
15262;DHT22;7733;51.554;13.590;2023-06-01T08:11:03;19.30;97.20
15262;DHT22;7733;51.554;13.590;2023-06-01T08:13:29;19.40;96.10
15262;DHT22;7733;51.554;13.590;2023-06-01T08:15:55;19.20;96.10
15262;DHT22;7733;51.554;13.590;2023-06-01T08:18:20;19.30;96.40
15262;DHT22;7733;51.554;13.590;2023-06-01T08:20:47;19.60;96.20
15262;DHT22;7733;51.554;13.590;2023-06-01T08:23:13;19.70;95.70
15262;DHT22;7733;51.554;13.590;2023-06-01T08:25:44;19.70;95.80
15262;DHT22;7733;51.554;13.590;2023-06-01T08:28:10;19.70;95.60
15262;DHT22;7733;51.554;13.590;2023-06-01T08:30:36;19.60;95.00
15262;DHT22;7733;51.554;13.590;2023-06-01T08:33:01;19.80;94.30
15262;DHT22;7733;51.554;13.590;2023-06-01T08:35:31;19.90;94.70
15262;DHT22;7733;51.554;13.590;2023-06-01T08:38:00;19.90;93.70
15262;DHT22;7733;51.554;13.590;2023-06-01T08:40:26;19.80;94.20
15262;DHT22;7733;51.554;13.590;2023-06-01T08:43:07;19.70;93.70
15262;DHT22;7733;51.554;13.590;2023-06-01T08:45:34;19.90;93.50
15262;DHT22;7733;51.554;13.590;2023-06-01T08:48:05;19.90;93.40
15262;DHT22;7733;51.554;13.590;2023-06-01T08:50:34;20.00;93.20
15262;DHT22;7733;51.554;13.590;2023-06-01T08:53:01;20.10;92.30
15262;DHT22;7733;51.554;13.590;2023-06-01T08:55:29;20.30;92.00
15262;DHT22;7733;51.554;13.590;2023-06-01T08:57:55;20.10;92.60
15262;DHT22;7733;51.554;13.590;2023-06-01T09:00:23;20.20;92.60
15262;DHT22;7733;51.554;13.590;2023-06-01T09:02:51;20.20;92.90
15262;DHT22;7733;51.554;13.590;2023-06-01T09:05:16;20.70;92.80
15262;DHT22;7733;51.554;13.590;2023-06-01T09:07:43;20.50;92.50
15262;DHT22;7733;51.554;13.590;2023-06-01T09:10:10;20.70;91.20
15262;DHT22;7733;51.554;13.590;2023-06-01T09:12:37;20.60;91.30
15262;DHT22;7733;51.554;13.590;2023-06-01T09:15:14;20.90;91.00
15262;DHT22;7733;51.554;13.590;2023-06-01T09:17:49;20.90;92.30
15262;DHT22;7733;51.554;13.590;2023-06-01T09:20:28;21.10;90.60
15262;DHT22;7733;51.554;13.590;2023-06-01T09:22:57;21.30;90.90
15262;DHT22;7733;51.554;13.590;2023-06-01T09:25:28;21.30;91.20
15262;DHT22;7733;51.554;13.590;2023-06-01T09:27:57;21.50;90.30
15262;DHT22;7733;51.554;13.590;2023-06-01T09:30:26;21.40;89.90
15262;DHT22;7733;51.554;13.590;2023-06-01T09:33:12;21.30;90.40
15262;DHT22;7733;51.554;13.590;2023-06-01T09:35:45;21.10;90.20
15262;DHT22;7733;51.554;13.590;2023-06-01T09:38:23;21.40;89.60
15262;DHT22;7733;51.554;13.590;2023-06-01T09:41:03;21.20;90.00
15262;DHT22;7733;51.554;13.590;2023-06-01T09:43:29;21.30;87.40
15262;DHT22;7733;51.554;13.590;2023-06-01T09:46:09;21.40;88.20
15262;DHT22;7733;51.554;13.590;2023-06-01T09:48:39;21.40;86.30
15262;DHT22;7733;51.554;13.590;2023-06-01T09:51:20;21.40;85.90
15262;DHT22;7733;51.554;13.590;2023-06-01T09:53:48;21.60;86.70
15262;DHT22;7733;51.554;13.590;2023-06-01T09:56:14;21.70;85.10
15262;DHT22;7733;51.554;13.590;2023-06-01T09:58:40;21.50;85.40
15262;DHT22;7733;51.554;13.590;2023-06-01T10:01:07;21.60;85.40
15262;DHT22;7733;51.554;13.590;2023-06-01T10:03:34;21.80;86.30
15262;DHT22;7733;51.554;13.590;2023-06-01T10:06:02;22.00;85.50
15262;DHT22;7733;51.554;13.590;2023-06-01T10:08:31;22.10;85.20
15262;DHT22;7733;51.554;13.590;2023-06-01T10:10:58;22.30;85.10
15262;DHT22;7733;51.554;13.590;2023-06-01T10:13:24;22.00;84.00
15262;DHT22;7733;51.554;13.590;2023-06-01T10:15:53;22.20;85.90
15262;DHT22;7733;51.554;13.590;2023-06-01T10:18:20;22.70;84.80
15262;DHT22;7733;51.554;13.590;2023-06-01T10:20:46;22.40;85.00
15262;DHT22;7733;51.554;13.590;2023-06-01T10:23:12;22.30;83.30
15262;DHT22;7733;51.554;13.590;2023-06-01T10:25:45;22.30;84.40
15262;DHT22;7733;51.554;13.590;2023-06-01T10:28:16;22.30;84.10
15262;DHT22;7733;51.554;13.590;2023-06-01T10:30:43;22.70;82.50
15262;DHT22;7733;51.554;13.590;2023-06-01T10:33:10;22.50;83.90
15262;DHT22;7733;51.554;13.590;2023-06-01T10:40:39;22.50;82.80
15262;DHT22;7733;51.554;13.590;2023-06-01T10:43:06;22.40;80.80
15262;DHT22;7733;51.554;13.590;2023-06-01T10:48:01;22.30;74.30
15262;DHT22;7733;51.554;13.590;2023-06-01T10:50:27;22.30;75.70
15262;DHT22;7733;51.554;13.590;2023-06-01T10:52:54;22.40;74.80
15262;DHT22;7733;51.554;13.590;2023-06-01T10:55:23;22.50;74.70
15262;DHT22;7733;51.554;13.590;2023-06-01T10:57:50;22.60;75.30
15262;DHT22;7733;51.554;13.590;2023-06-01T11:00:23;22.80;77.50
15262;DHT22;7733;51.554;13.590;2023-06-01T11:03:04;22.90;78.00
15262;DHT22;7733;51.554;13.590;2023-06-01T11:05:46;22.70;73.40
15262;DHT22;7733;51.554;13.590;2023-06-01T11:13:30;22.60;74.70
15262;DHT22;7733;51.554;13.590;2023-06-01T11:18:50;23.40;77.40
15262;DHT22;7733;51.554;13.590;2023-06-01T11:21:37;23.50;75.40
15262;DHT22;7733;51.554;13.590;2023-06-01T11:24:16;23.80;74.30
15262;DHT22;7733;51.554;13.590;2023-06-01T11:26:47;23.60;72.60
15262;DHT22;7733;51.554;13.590;2023-06-01T11:29:19;23.70;74.30
15262;DHT22;7733;51.554;13.590;2023-06-01T11:31:55;23.90;73.80
15262;DHT22;7733;51.554;13.590;2023-06-01T11:36:56;24.00;69.50
15262;DHT22;7733;51.554;13.590;2023-06-01T11:39:26;23.40;66.20
15262;DHT22;7733;51.554;13.590;2023-06-01T11:42:07;23.50;69.40
15262;DHT22;7733;51.554;13.590;2023-06-01T11:44:35;23.30;68.00
15262;DHT22;7733;51.554;13.590;2023-06-01T11:47:04;23.40;69.60
15262;DHT22;7733;51.554;13.590;2023-06-01T11:49:39;23.50;69.30
15262;DHT22;7733;51.554;13.590;2023-06-01T11:52:08;23.20;67.20
15262;DHT22;7733;51.554;13.590;2023-06-01T11:54:35;23.40;65.40
15262;DHT22;7733;51.554;13.590;2023-06-01T11:57:02;23.30;65.80
15262;DHT22;7733;51.554;13.590;2023-06-01T11:59:46;23.60;64.70
15262;DHT22;7733;51.554;13.590;2023-06-01T12:02:22;23.80;67.60
15262;DHT22;7733;51.554;13.590;2023-06-01T12:05:06;23.40;67.10
15262;DHT22;7733;51.554;13.590;2023-06-01T12:07:47;23.20;68.60
15262;DHT22;7733;51.554;13.590;2023-06-01T12:10:16;23.40;67.40
15262;DHT22;7733;51.554;13.590;2023-06-01T12:12:44;23.70;67.70
15262;DHT22;7733;51.554;13.590;2023-06-01T12:15:12;23.90;67.00
15262;DHT22;7733;51.554;13.590;2023-06-01T12:17:53;23.80;64.50
15262;DHT22;7733;51.554;13.590;2023-06-01T12:20:40;23.70;67.10
15262;DHT22;7733;51.554;13.590;2023-06-01T12:25:53;24.10;67.70
15262;DHT22;7733;51.554;13.590;2023-06-01T12:28:26;24.10;67.70
15262;DHT22;7733;51.554;13.590;2023-06-01T12:31:14;24.00;68.80
15262;DHT22;7733;51.554;13.590;2023-06-01T12:33:42;24.10;69.30
15262;DHT22;7733;51.554;13.590;2023-06-01T12:36:29;24.20;68.90
15262;DHT22;7733;51.554;13.590;2023-06-01T12:39:00;24.50;70.70
15262;DHT22;7733;51.554;13.590;2023-06-01T12:41:29;24.50;68.50
15262;DHT22;7733;51.554;13.590;2023-06-01T12:43:57;24.30;69.30
15262;DHT22;7733;51.554;13.590;2023-06-01T12:46:28;24.20;68.90
15262;DHT22;7733;51.554;13.590;2023-06-01T12:49:14;23.90;68.10
15262;DHT22;7733;51.554;13.590;2023-06-01T12:51:45;24.30;69.10
15262;DHT22;7733;51.554;13.590;2023-06-01T12:54:11;24.30;67.80
15262;DHT22;7733;51.554;13.590;2023-06-01T12:56:37;24.30;69.60
15262;DHT22;7733;51.554;13.590;2023-06-01T12:59:03;24.50;70.30
15262;DHT22;7733;51.554;13.590;2023-06-01T13:01:29;24.60;69.60
15262;DHT22;7733;51.554;13.590;2023-06-01T13:03:55;24.90;70.20
15262;DHT22;7733;51.554;13.590;2023-06-01T13:06:22;24.70;67.90
15262;DHT22;7733;51.554;13.590;2023-06-01T13:08:48;24.60;69.40
15262;DHT22;7733;51.554;13.590;2023-06-01T13:11:14;25.00;68.40
15262;DHT22;7733;51.554;13.590;2023-06-01T13:13:40;24.70;69.90
15262;DHT22;7733;51.554;13.590;2023-06-01T13:16:06;24.50;70.30
15262;DHT22;7733;51.554;13.590;2023-06-01T13:18:32;24.60;68.90
15262;DHT22;7733;51.554;13.590;2023-06-01T13:20:58;24.90;67.80
15262;DHT22;7733;51.554;13.590;2023-06-01T13:23:24;24.90;63.70
15262;DHT22;7733;51.554;13.590;2023-06-01T13:25:50;24.70;64.10
15262;DHT22;7733;51.554;13.590;2023-06-01T13:28:16;24.90;65.60
15262;DHT22;7733;51.554;13.590;2023-06-01T13:30:42;25.00;65.40
15262;DHT22;7733;51.554;13.590;2023-06-01T13:33:08;24.70;64.80
15262;DHT22;7733;51.554;13.590;2023-06-01T13:35:34;24.80;65.30
15262;DHT22;7733;51.554;13.590;2023-06-01T13:38:01;24.70;66.60
15262;DHT22;7733;51.554;13.590;2023-06-01T13:40:27;24.80;66.90
15262;DHT22;7733;51.554;13.590;2023-06-01T13:42:53;24.70;67.30
15262;DHT22;7733;51.554;13.590;2023-06-01T13:45:20;24.70;68.40
15262;DHT22;7733;51.554;13.590;2023-06-01T13:47:47;24.90;67.30
15262;DHT22;7733;51.554;13.590;2023-06-01T13:50:14;25.20;66.50
15262;DHT22;7733;51.554;13.590;2023-06-01T13:52:40;25.50;65.60
15262;DHT22;7733;51.554;13.590;2023-06-01T13:55:08;24.90;63.60
15262;DHT22;7733;51.554;13.590;2023-06-01T13:57:35;25.00;64.10
15262;DHT22;7733;51.554;13.590;2023-06-01T14:00:03;25.00;61.90
15262;DHT22;7733;51.554;13.590;2023-06-01T14:02:29;25.00;64.30
15262;DHT22;7733;51.554;13.590;2023-06-01T14:04:55;25.00;66.00
15262;DHT22;7733;51.554;13.590;2023-06-01T14:07:21;25.20;66.50
15262;DHT22;7733;51.554;13.590;2023-06-01T14:09:46;25.20;62.40
15262;DHT22;7733;51.554;13.590;2023-06-01T14:12:12;24.70;62.40
15262;DHT22;7733;51.554;13.590;2023-06-01T14:14:38;24.70;62.10
15262;DHT22;7733;51.554;13.590;2023-06-01T14:17:04;24.70;62.80
15262;DHT22;7733;51.554;13.590;2023-06-01T14:19:30;24.90;62.40
15262;DHT22;7733;51.554;13.590;2023-06-01T14:21:56;25.10;62.00
15262;DHT22;7733;51.554;13.590;2023-06-01T14:24:21;24.90;59.60
15262;DHT22;7733;51.554;13.590;2023-06-01T14:26:47;24.80;61.40
15262;DHT22;7733;51.554;13.590;2023-06-01T14:29:13;24.80;62.80
15262;DHT22;7733;51.554;13.590;2023-06-01T14:31:39;24.60;61.80
15262;DHT22;7733;51.554;13.590;2023-06-01T14:34:04;24.60;62.50
15262;DHT22;7733;51.554;13.590;2023-06-01T14:36:30;24.60;62.50
15262;DHT22;7733;51.554;13.590;2023-06-01T14:38:57;24.50;60.60
15262;DHT22;7733;51.554;13.590;2023-06-01T14:41:23;24.40;65.80
15262;DHT22;7733;51.554;13.590;2023-06-01T14:43:48;24.40;63.30
15262;DHT22;7733;51.554;13.590;2023-06-01T14:46:14;24.80;64.50
15262;DHT22;7733;51.554;13.590;2023-06-01T14:48:40;24.60;64.30
15262;DHT22;7733;51.554;13.590;2023-06-01T14:51:05;24.80;64.20
15262;DHT22;7733;51.554;13.590;2023-06-01T14:53:31;24.50;63.70
15262;DHT22;7733;51.554;13.590;2023-06-01T14:55:57;24.40;63.40
15262;DHT22;7733;51.554;13.590;2023-06-01T14:58:22;24.40;62.60
15262;DHT22;7733;51.554;13.590;2023-06-01T15:00:48;24.60;62.60
15262;DHT22;7733;51.554;13.590;2023-06-01T15:03:15;24.50;63.40
15262;DHT22;7733;51.554;13.590;2023-06-01T15:05:41;24.50;63.40
15262;DHT22;7733;51.554;13.590;2023-06-01T15:08:08;24.60;63.50
15262;DHT22;7733;51.554;13.590;2023-06-01T15:10:33;24.60;65.10
15262;DHT22;7733;51.554;13.590;2023-06-01T15:12:59;24.50;66.10
15262;DHT22;7733;51.554;13.590;2023-06-01T15:15:25;24.30;67.80
15262;DHT22;7733;51.554;13.590;2023-06-01T15:17:52;24.00;67.10
15262;DHT22;7733;51.554;13.590;2023-06-01T15:20:18;24.30;67.90
15262;DHT22;7733;51.554;13.590;2023-06-01T15:22:44;24.60;68.70
15262;DHT22;7733;51.554;13.590;2023-06-01T15:25:10;24.30;67.70
15262;DHT22;7733;51.554;13.590;2023-06-01T15:27:35;24.30;68.10
15262;DHT22;7733;51.554;13.590;2023-06-01T15:30:02;24.30;69.10
15262;DHT22;7733;51.554;13.590;2023-06-01T15:32:28;24.30;69.30
15262;DHT22;7733;51.554;13.590;2023-06-01T15:34:54;24.30;69.40
15262;DHT22;7733;51.554;13.590;2023-06-01T15:37:19;24.30;70.80
15262;DHT22;7733;51.554;13.590;2023-06-01T15:39:45;24.30;69.90
15262;DHT22;7733;51.554;13.590;2023-06-01T15:42:11;24.00;69.50
15262;DHT22;7733;51.554;13.590;2023-06-01T15:44:41;24.10;69.90
15262;DHT22;7733;51.554;13.590;2023-06-01T15:47:09;24.20;69.90
15262;DHT22;7733;51.554;13.590;2023-06-01T15:49:36;24.20;70.20
15262;DHT22;7733;51.554;13.590;2023-06-01T15:52:04;23.90;70.40
15262;DHT22;7733;51.554;13.590;2023-06-01T15:54:33;24.20;69.90
15262;DHT22;7733;51.554;13.590;2023-06-01T15:57:01;24.50;69.90
15262;DHT22;7733;51.554;13.590;2023-06-01T15:59:29;24.30;70.60
15262;DHT22;7733;51.554;13.590;2023-06-01T16:01:55;23.90;70.60
15262;DHT22;7733;51.554;13.590;2023-06-01T16:04:21;23.70;71.10
15262;DHT22;7733;51.554;13.590;2023-06-01T16:06:47;23.50;71.00